sensor_id;sensor_type;location;lat;lon;timestamp;P1;durP1;ratioP1;P2;durP2;ratioP2
50231;SDS011;36118;56.468;84.952;2023-04-24T00:04:31;22.00;;;4.65;;
50231;SDS011;36118;56.468;84.952;2023-04-24T00:09:34;30.33;;;4.90;;
50231;SDS011;36118;56.468;84.952;2023-04-24T00:14:37;22.65;;;4.72;;
50231;SDS011;36118;56.468;84.952;2023-04-24T00:19:40;29.15;;;5.63;;
50231;SDS011;36118;56.468;84.952;2023-04-24T00:24:43;15.98;;;5.00;;
50231;SDS011;36118;56.468;84.952;2023-04-24T00:29:46;13.80;;;4.40;;
50231;SDS011;36118;56.468;84.952;2023-04-24T00:34:49;18.20;;;5.38;;
50231;SDS011;36118;56.468;84.952;2023-04-24T00:39:52;16.52;;;4.18;;
50231;SDS011;36118;56.468;84.952;2023-04-24T00:44:56;16.92;;;4.05;;
50231;SDS011;36118;56.468;84.952;2023-04-24T00:50:01;14.95;;;4.03;;
50231;SDS011;36118;56.468;84.952;2023-04-24T00:55:05;31.55;;;4.60;;
50231;SDS011;36118;56.468;84.952;2023-04-24T01:00:09;17.73;;;3.80;;
50231;SDS011;36118;56.468;84.952;2023-04-24T01:05:13;24.27;;;5.00;;
50231;SDS011;36118;56.468;84.952;2023-04-24T01:10:17;17.60;;;4.10;;
50231;SDS011;36118;56.468;84.952;2023-04-24T01:15:21;21.15;;;4.20;;
50231;SDS011;36118;56.468;84.952;2023-04-24T01:20:24;48.13;;;5.38;;
50231;SDS011;36118;56.468;84.952;2023-04-24T01:25:28;17.27;;;4.95;;
50231;SDS011;36118;56.468;84.952;2023-04-24T01:30:31;14.38;;;4.43;;
50231;SDS011;36118;56.468;84.952;2023-04-24T01:35:34;18.42;;;3.85;;
50231;SDS011;36118;56.468;84.952;2023-04-24T01:40:38;24.60;;;4.30;;
50231;SDS011;36118;56.468;84.952;2023-04-24T01:45:41;22.33;;;4.45;;
50231;SDS011;36118;56.468;84.952;2023-04-24T01:50:44;20.52;;;3.60;;
50231;SDS011;36118;56.468;84.952;2023-04-24T01:55:47;17.00;;;3.70;;
50231;SDS011;36118;56.468;84.952;2023-04-24T02:00:49;44.03;;;4.35;;
50231;SDS011;36118;56.468;84.952;2023-04-24T02:05:52;16.85;;;4.22;;
50231;SDS011;36118;56.468;84.952;2023-04-24T02:10:55;15.90;;;3.60;;
50231;SDS011;36118;56.468;84.952;2023-04-24T02:15:58;18.65;;;4.28;;
50231;SDS011;36118;56.468;84.952;2023-04-24T02:21:21;13.43;;;3.58;;
50231;SDS011;36118;56.468;84.952;2023-04-24T02:26:24;14.77;;;3.28;;
50231;SDS011;36118;56.468;84.952;2023-04-24T02:31:27;17.23;;;3.83;;
50231;SDS011;36118;56.468;84.952;2023-04-24T02:36:30;13.15;;;4.18;;
50231;SDS011;36118;56.468;84.952;2023-04-24T02:41:34;20.20;;;6.60;;
50231;SDS011;36118;56.468;84.952;2023-04-24T02:46:37;13.65;;;3.30;;
50231;SDS011;36118;56.468;84.952;2023-04-24T02:51:40;17.50;;;3.20;;
50231;SDS011;36118;56.468;84.952;2023-04-24T02:56:43;18.10;;;3.63;;
50231;SDS011;36118;56.468;84.952;2023-04-24T03:01:46;19.30;;;3.58;;
50231;SDS011;36118;56.468;84.952;2023-04-24T03:06:49;17.50;;;4.20;;
50231;SDS011;36118;56.468;84.952;2023-04-24T03:11:55;14.25;;;4.07;;
50231;SDS011;36118;56.468;84.952;2023-04-24T03:16:59;23.63;;;4.30;;
50231;SDS011;36118;56.468;84.952;2023-04-24T03:22:02;21.50;;;4.07;;
50231;SDS011;36118;56.468;84.952;2023-04-24T03:27:06;23.30;;;4.72;;
50231;SDS011;36118;56.468;84.952;2023-04-24T03:32:44;24.27;;;4.45;;
50231;SDS011;36118;56.468;84.952;2023-04-24T03:37:52;15.82;;;4.50;;
50231;SDS011;36118;56.468;84.952;2023-04-24T03:43:18;33.22;;;5.70;;
50231;SDS011;36118;56.468;84.952;2023-04-24T03:48:21;27.08;;;4.80;;
50231;SDS011;36118;56.468;84.952;2023-04-24T03:53:25;15.23;;;4.15;;
50231;SDS011;36118;56.468;84.952;2023-04-24T03:58:30;17.30;;;4.03;;
50231;SDS011;36118;56.468;84.952;2023-04-24T04:03:34;15.25;;;3.58;;
50231;SDS011;36118;56.468;84.952;2023-04-24T04:08:37;13.82;;;3.63;;
50231;SDS011;36118;56.468;84.952;2023-04-24T04:13:40;24.85;;;3.70;;
50231;SDS011;36118;56.468;84.952;2023-04-24T04:18:43;10.82;;;3.47;;
50231;SDS011;36118;56.468;84.952;2023-04-24T04:23:51;24.42;;;4.00;;
50231;SDS011;36118;56.468;84.952;2023-04-24T04:29:00;14.25;;;3.55;;
50231;SDS011;36118;56.468;84.952;2023-04-24T04:34:07;26.75;;;3.80;;
50231;SDS011;36118;56.468;84.952;2023-04-24T04:39:10;57.92;;;5.05;;
50231;SDS011;36118;56.468;84.952;2023-04-24T04:44:20;19.45;;;3.00;;
50231;SDS011;36118;56.468;84.952;2023-04-24T04:49:24;27.83;;;3.73;;
50231;SDS011;36118;56.468;84.952;2023-04-24T04:54:31;18.27;;;3.45;;
50231;SDS011;36118;56.468;84.952;2023-04-24T04:59:34;21.70;;;3.00;;
50231;SDS011;36118;56.468;84.952;2023-04-24T05:04:41;19.52;;;3.45;;
50231;SDS011;36118;56.468;84.952;2023-04-24T05:09:45;18.80;;;2.88;;
50231;SDS011;36118;56.468;84.952;2023-04-24T05:14:48;18.90;;;2.95;;
50231;SDS011;36118;56.468;84.952;2023-04-24T05:19:52;34.05;;;4.45;;
50231;SDS011;36118;56.468;84.952;2023-04-24T05:24:54;16.25;;;3.30;;
50231;SDS011;36118;56.468;84.952;2023-04-24T05:30:09;26.02;;;3.38;;
50231;SDS011;36118;56.468;84.952;2023-04-24T05:35:13;16.33;;;3.60;;
50231;SDS011;36118;56.468;84.952;2023-04-24T05:40:16;21.15;;;4.00;;
50231;SDS011;36118;56.468;84.952;2023-04-24T05:45:20;14.07;;;3.38;;
50231;SDS011;36118;56.468;84.952;2023-04-24T05:50:23;12.10;;;3.42;;
50231;SDS011;36118;56.468;84.952;2023-04-24T05:55:26;18.27;;;5.00;;
50231;SDS011;36118;56.468;84.952;2023-04-24T06:00:29;20.30;;;3.90;;
50231;SDS011;36118;56.468;84.952;2023-04-24T06:05:38;19.15;;;3.85;;
50231;SDS011;36118;56.468;84.952;2023-04-24T06:10:41;14.00;;;3.33;;
50231;SDS011;36118;56.468;84.952;2023-04-24T06:15:45;21.25;;;3.85;;
50231;SDS011;36118;56.468;84.952;2023-04-24T06:20:56;25.13;;;3.90;;
50231;SDS011;36118;56.468;84.952;2023-04-24T06:25:59;15.35;;;3.80;;
50231;SDS011;36118;56.468;84.952;2023-04-24T06:31:02;13.52;;;3.70;;
50231;SDS011;36118;56.468;84.952;2023-04-24T06:36:05;15.77;;;3.97;;
50231;SDS011;36118;56.468;84.952;2023-04-24T06:41:08;17.23;;;4.35;;
50231;SDS011;36118;56.468;84.952;2023-04-24T06:46:11;38.22;;;5.60;;
50231;SDS011;36118;56.468;84.952;2023-04-24T06:51:14;19.20;;;4.60;;
50231;SDS011;36118;56.468;84.952;2023-04-24T06:56:17;14.07;;;4.20;;
50231;SDS011;36118;56.468;84.952;2023-04-24T07:01:20;54.30;;;5.93;;
50231;SDS011;36118;56.468;84.952;2023-04-24T07:06:23;16.58;;;4.85;;
50231;SDS011;36118;56.468;84.952;2023-04-24T07:11:26;20.80;;;5.05;;
50231;SDS011;36118;56.468;84.952;2023-04-24T07:16:31;18.45;;;5.13;;
50231;SDS011;36118;56.468;84.952;2023-04-24T07:21:34;31.90;;;5.38;;
50231;SDS011;36118;56.468;84.952;2023-04-24T07:26:37;20.05;;;5.32;;
50231;SDS011;36118;56.468;84.952;2023-04-24T07:31:42;27.20;;;5.20;;
50231;SDS011;36118;56.468;84.952;2023-04-24T07:36:45;41.53;;;6.45;;
50231;SDS011;36118;56.468;84.952;2023-04-24T07:41:48;24.40;;;4.50;;
50231;SDS011;36118;56.468;84.952;2023-04-24T07:46:51;22.27;;;5.32;;
50231;SDS011;36118;56.468;84.952;2023-04-24T07:51:54;22.13;;;4.13;;
50231;SDS011;36118;56.468;84.952;2023-04-24T07:56:57;17.67;;;3.65;;
50231;SDS011;36118;56.468;84.952;2023-04-24T08:02:00;21.77;;;3.70;;
50231;SDS011;36118;56.468;84.952;2023-04-24T08:07:03;16.60;;;3.17;;
50231;SDS011;36118;56.468;84.952;2023-04-24T08:12:06;27.77;;;4.25;;
50231;SDS011;36118;56.468;84.952;2023-04-24T08:17:09;13.18;;;3.80;;
50231;SDS011;36118;56.468;84.952;2023-04-24T08:22:12;16.83;;;3.90;;
50231;SDS011;36118;56.468;84.952;2023-04-24T08:27:16;21.95;;;4.15;;
50231;SDS011;36118;56.468;84.952;2023-04-24T08:32:18;27.90;;;4.47;;
50231;SDS011;36118;56.468;84.952;2023-04-24T08:37:22;12.75;;;2.97;;
50231;SDS011;36118;56.468;84.952;2023-04-24T08:42:25;18.23;;;3.60;;
50231;SDS011;36118;56.468;84.952;2023-04-24T08:52:33;13.35;;;3.63;;
50231;SDS011;36118;56.468;84.952;2023-04-24T08:57:37;12.77;;;3.20;;
50231;SDS011;36118;56.468;84.952;2023-04-24T09:02:42;9.63;;;3.10;;
50231;SDS011;36118;56.468;84.952;2023-04-24T09:07:48;25.63;;;2.75;;
50231;SDS011;36118;56.468;84.952;2023-04-24T09:12:52;43.95;;;4.15;;
50231;SDS011;36118;56.468;84.952;2023-04-24T09:17:57;143.30;;;8.80;;
50231;SDS011;36118;56.468;84.952;2023-04-24T09:23:00;24.52;;;3.45;;
50231;SDS011;36118;56.468;84.952;2023-04-24T09:28:03;17.95;;;2.90;;
50231;SDS011;36118;56.468;84.952;2023-04-24T09:33:24;16.27;;;2.50;;
50231;SDS011;36118;56.468;84.952;2023-04-24T09:38:45;14.48;;;2.40;;
50231;SDS011;36118;56.468;84.952;2023-04-24T09:43:48;13.55;;;2.65;;
50231;SDS011;36118;56.468;84.952;2023-04-24T09:48:51;8.55;;;2.10;;
50231;SDS011;36118;56.468;84.952;2023-04-24T09:53:54;14.10;;;2.60;;
50231;SDS011;36118;56.468;84.952;2023-04-24T09:59:05;13.23;;;2.60;;
50231;SDS011;36118;56.468;84.952;2023-04-24T10:04:18;10.65;;;2.35;;
50231;SDS011;36118;56.468;84.952;2023-04-24T10:09:24;12.15;;;2.25;;
50231;SDS011;36118;56.468;84.952;2023-04-24T10:14:28;14.18;;;2.45;;
50231;SDS011;36118;56.468;84.952;2023-04-24T10:19:32;11.35;;;2.42;;
50231;SDS011;36118;56.468;84.952;2023-04-24T10:24:35;11.30;;;2.55;;
50231;SDS011;36118;56.468;84.952;2023-04-24T10:29:40;8.40;;;2.45;;
50231;SDS011;36118;56.468;84.952;2023-04-24T10:34:45;15.80;;;3.03;;
50231;SDS011;36118;56.468;84.952;2023-04-24T10:39:50;18.52;;;2.67;;
50231;SDS011;36118;56.468;84.952;2023-04-24T10:44:56;7.60;;;2.15;;
50231;SDS011;36118;56.468;84.952;2023-04-24T10:50:00;12.57;;;2.47;;
50231;SDS011;36118;56.468;84.952;2023-04-24T10:55:04;14.23;;;2.55;;
50231;SDS011;36118;56.468;84.952;2023-04-24T11:00:13;10.13;;;2.30;;
50231;SDS011;36118;56.468;84.952;2023-04-24T11:05:18;15.77;;;2.55;;
50231;SDS011;36118;56.468;84.952;2023-04-24T11:10:26;8.63;;;2.03;;
50231;SDS011;36118;56.468;84.952;2023-04-24T11:15:31;15.10;;;2.05;;
50231;SDS011;36118;56.468;84.952;2023-04-24T11:20:38;15.02;;;2.95;;
50231;SDS011;36118;56.468;84.952;2023-04-24T11:25:56;15.57;;;2.47;;
50231;SDS011;36118;56.468;84.952;2023-04-24T11:31:39;8.95;;;1.90;;
50231;SDS011;36118;56.468;84.952;2023-04-24T11:36:50;10.85;;;2.60;;
50231;SDS011;36118;56.468;84.952;2023-04-24T11:41:53;15.10;;;2.30;;
50231;SDS011;36118;56.468;84.952;2023-04-24T11:47:05;15.10;;;3.15;;
50231;SDS011;36118;56.468;84.952;2023-04-24T11:52:09;33.60;;;4.15;;
50231;SDS011;36118;56.468;84.952;2023-04-24T11:57:12;13.32;;;2.95;;
50231;SDS011;36118;56.468;84.952;2023-04-24T12:02:22;11.90;;;2.90;;
50231;SDS011;36118;56.468;84.952;2023-04-24T12:07:28;11.77;;;3.00;;
50231;SDS011;36118;56.468;84.952;2023-04-24T12:12:31;11.63;;;3.15;;
50231;SDS011;36118;56.468;84.952;2023-04-24T12:17:34;7.53;;;2.53;;
50231;SDS011;36118;56.468;84.952;2023-04-24T12:22:55;14.82;;;2.63;;
50231;SDS011;36118;56.468;84.952;2023-04-24T12:33:08;11.55;;;2.70;;
50231;SDS011;36118;56.468;84.952;2023-04-24T12:38:12;18.30;;;3.30;;
50231;SDS011;36118;56.468;84.952;2023-04-24T12:43:16;12.73;;;2.83;;
50231;SDS011;36118;56.468;84.952;2023-04-24T12:48:20;21.17;;;3.15;;
50231;SDS011;36118;56.468;84.952;2023-04-24T12:53:24;14.88;;;3.20;;
50231;SDS011;36118;56.468;84.952;2023-04-24T12:58:28;15.60;;;2.90;;
50231;SDS011;36118;56.468;84.952;2023-04-24T13:03:31;22.63;;;3.00;;
50231;SDS011;36118;56.468;84.952;2023-04-24T13:08:34;10.23;;;3.30;;
50231;SDS011;36118;56.468;84.952;2023-04-24T13:13:40;13.85;;;3.47;;
50231;SDS011;36118;56.468;84.952;2023-04-24T13:18:43;29.02;;;3.92;;
50231;SDS011;36118;56.468;84.952;2023-04-24T13:23:46;24.15;;;3.85;;
50231;SDS011;36118;56.468;84.952;2023-04-24T13:28:49;17.98;;;4.03;;
50231;SDS011;36118;56.468;84.952;2023-04-24T13:33:54;22.70;;;4.13;;
50231;SDS011;36118;56.468;84.952;2023-04-24T13:38:57;15.75;;;4.38;;
50231;SDS011;36118;56.468;84.952;2023-04-24T13:44:00;17.58;;;4.18;;
50231;SDS011;36118;56.468;84.952;2023-04-24T13:49:04;15.68;;;3.75;;
50231;SDS011;36118;56.468;84.952;2023-04-24T13:54:07;15.45;;;3.88;;
50231;SDS011;36118;56.468;84.952;2023-04-24T13:59:12;16.38;;;3.38;;
50231;SDS011;36118;56.468;84.952;2023-04-24T14:04:15;13.60;;;3.30;;
50231;SDS011;36118;56.468;84.952;2023-04-24T14:09:18;14.23;;;3.53;;
50231;SDS011;36118;56.468;84.952;2023-04-24T14:14:21;11.65;;;3.17;;
50231;SDS011;36118;56.468;84.952;2023-04-24T14:19:24;17.15;;;3.20;;
50231;SDS011;36118;56.468;84.952;2023-04-24T14:24:27;14.15;;;3.30;;
50231;SDS011;36118;56.468;84.952;2023-04-24T14:29:29;14.20;;;3.20;;
50231;SDS011;36118;56.468;84.952;2023-04-24T14:34:35;19.40;;;3.20;;
50231;SDS011;36118;56.468;84.952;2023-04-24T14:39:38;11.50;;;3.38;;
50231;SDS011;36118;56.468;84.952;2023-04-24T14:44:41;18.25;;;4.40;;
50231;SDS011;36118;56.468;84.952;2023-04-24T14:49:44;17.17;;;4.90;;
50231;SDS011;36118;56.468;84.952;2023-04-24T14:54:49;12.33;;;4.03;;
50231;SDS011;36118;56.468;84.952;2023-04-24T14:59:52;13.35;;;5.78;;
50231;SDS011;36118;56.468;84.952;2023-04-24T15:04:56;13.95;;;6.00;;
50231;SDS011;36118;56.468;84.952;2023-04-24T15:09:59;15.23;;;4.72;;
50231;SDS011;36118;56.468;84.952;2023-04-24T15:15:04;16.27;;;5.40;;
50231;SDS011;36118;56.468;84.952;2023-04-24T15:20:08;11.38;;;4.63;;
50231;SDS011;36118;56.468;84.952;2023-04-24T15:25:11;12.52;;;5.60;;
50231;SDS011;36118;56.468;84.952;2023-04-24T15:30:14;11.25;;;5.95;;
50231;SDS011;36118;56.468;84.952;2023-04-24T15:35:17;14.63;;;5.97;;
50231;SDS011;36118;56.468;84.952;2023-04-24T15:40:20;11.52;;;5.97;;
50231;SDS011;36118;56.468;84.952;2023-04-24T15:45:23;26.55;;;6.38;;
50231;SDS011;36118;56.468;84.952;2023-04-24T15:50:27;11.38;;;5.88;;
50231;SDS011;36118;56.468;84.952;2023-04-24T15:55:34;10.65;;;5.32;;
50231;SDS011;36118;56.468;84.952;2023-04-24T16:00:38;11.60;;;6.37;;
50231;SDS011;36118;56.468;84.952;2023-04-24T16:05:41;10.10;;;6.30;;
50231;SDS011;36118;56.468;84.952;2023-04-24T16:10:44;10.98;;;6.38;;
50231;SDS011;36118;56.468;84.952;2023-04-24T16:15:48;10.25;;;6.53;;
50231;SDS011;36118;56.468;84.952;2023-04-24T16:20:52;11.48;;;7.90;;
50231;SDS011;36118;56.468;84.952;2023-04-24T16:25:55;10.68;;;6.63;;
50231;SDS011;36118;56.468;84.952;2023-04-24T16:30:57;10.30;;;6.70;;
50231;SDS011;36118;56.468;84.952;2023-04-24T16:36:00;11.20;;;7.65;;
50231;SDS011;36118;56.468;84.952;2023-04-24T16:41:05;12.65;;;8.07;;
50231;SDS011;36118;56.468;84.952;2023-04-24T16:46:08;11.30;;;7.57;;
50231;SDS011;36118;56.468;84.952;2023-04-24T16:51:11;11.35;;;7.75;;
50231;SDS011;36118;56.468;84.952;2023-04-24T16:56:14;12.25;;;8.23;;
50231;SDS011;36118;56.468;84.952;2023-04-24T17:01:17;11.07;;;6.60;;
50231;SDS011;36118;56.468;84.952;2023-04-24T17:06:20;8.77;;;5.68;;
50231;SDS011;36118;56.468;84.952;2023-04-24T17:11:23;5.00;;;2.33;;
50231;SDS011;36118;56.468;84.952;2023-04-24T17:16:26;2.10;;;1.13;;
50231;SDS011;36118;56.468;84.952;2023-04-24T17:21:29;3.05;;;0.77;;
50231;SDS011;36118;56.468;84.952;2023-04-24T17:26:32;1.13;;;0.47;;
50231;SDS011;36118;56.468;84.952;2023-04-24T17:31:35;0.77;;;0.30;;
50231;SDS011;36118;56.468;84.952;2023-04-24T17:36:38;0.65;;;0.20;;
50231;SDS011;36118;56.468;84.952;2023-04-24T17:41:42;0.20;;;0.10;;
50231;SDS011;36118;56.468;84.952;2023-04-24T17:46:44;0.10;;;0.10;;
50231;SDS011;36118;56.468;84.952;2023-04-24T17:51:47;0.50;;;0.17;;
50231;SDS011;36118;56.468;84.952;2023-04-24T17:56:50;0.52;;;0.10;;
50231;SDS011;36118;56.468;84.952;2023-04-24T18:01:54;0.55;;;0.10;;
50231;SDS011;36118;56.468;84.952;2023-04-24T18:06:57;2.20;;;0.20;;
50231;SDS011;36118;56.468;84.952;2023-04-24T18:12:00;0.10;;;0.10;;
50231;SDS011;36118;56.468;84.952;2023-04-24T18:17:03;0.30;;;0.20;;
50231;SDS011;36118;56.468;84.952;2023-04-24T18:22:06;0.82;;;0.15;;
50231;SDS011;36118;56.468;84.952;2023-04-24T18:27:08;0.20;;;0.10;;
50231;SDS011;36118;56.468;84.952;2023-04-24T18:32:11;1.60;;;0.50;;
50231;SDS011;36118;56.468;84.952;2023-04-24T18:37:14;1.17;;;0.40;;
50231;SDS011;36118;56.468;84.952;2023-04-24T18:42:18;0.28;;;0.10;;
50231;SDS011;36118;56.468;84.952;2023-04-24T18:47:20;1.20;;;0.20;;
50231;SDS011;36118;56.468;84.952;2023-04-24T18:52:23;0.80;;;0.30;;
50231;SDS011;36118;56.468;84.952;2023-04-24T18:57:27;0.82;;;0.30;;
50231;SDS011;36118;56.468;84.952;2023-04-24T19:02:30;0.85;;;0.30;;
50231;SDS011;36118;56.468;84.952;2023-04-24T19:07:35;0.90;;;0.38;;
50231;SDS011;36118;56.468;84.952;2023-04-24T19:12:38;1.25;;;0.30;;
50231;SDS011;36118;56.468;84.952;2023-04-24T19:17:40;0.50;;;0.28;;
50231;SDS011;36118;56.468;84.952;2023-04-24T19:22:44;0.38;;;0.10;;
50231;SDS011;36118;56.468;84.952;2023-04-24T19:27:47;0.80;;;0.30;;
50231;SDS011;36118;56.468;84.952;2023-04-24T19:32:50;0.57;;;0.30;;
50231;SDS011;36118;56.468;84.952;2023-04-24T19:37:53;0.98;;;0.32;;
50231;SDS011;36118;56.468;84.952;2023-04-24T19:42:56;0.20;;;0.10;;
50231;SDS011;36118;56.468;84.952;2023-04-24T19:47:58;1.40;;;0.30;;
50231;SDS011;36118;56.468;84.952;2023-04-24T19:53:01;0.90;;;0.30;;
50231;SDS011;36118;56.468;84.952;2023-04-24T19:58:05;1.30;;;0.40;;
50231;SDS011;36118;56.468;84.952;2023-04-24T20:03:07;2.58;;;0.70;;
50231;SDS011;36118;56.468;84.952;2023-04-24T20:13:25;2.22;;;0.80;;
50231;SDS011;36118;56.468;84.952;2023-04-24T20:18:29;1.55;;;0.75;;
50231;SDS011;36118;56.468;84.952;2023-04-24T20:23:32;2.25;;;1.10;;
50231;SDS011;36118;56.468;84.952;2023-04-24T20:28:35;3.10;;;0.55;;
50231;SDS011;36118;56.468;84.952;2023-04-24T20:33:38;1.83;;;1.00;;
50231;SDS011;36118;56.468;84.952;2023-04-24T20:38:42;1.67;;;0.70;;
50231;SDS011;36118;56.468;84.952;2023-04-24T20:43:45;1.50;;;0.75;;
50231;SDS011;36118;56.468;84.952;2023-04-24T20:48:48;1.40;;;0.70;;
50231;SDS011;36118;56.468;84.952;2023-04-24T20:53:51;2.45;;;0.98;;
50231;SDS011;36118;56.468;84.952;2023-04-24T20:58:54;2.75;;;1.02;;
50231;SDS011;36118;56.468;84.952;2023-04-24T21:03:58;2.30;;;0.80;;
50231;SDS011;36118;56.468;84.952;2023-04-24T21:09:01;1.20;;;0.45;;
50231;SDS011;36118;56.468;84.952;2023-04-24T21:14:04;3.67;;;1.00;;
50231;SDS011;36118;56.468;84.952;2023-04-24T21:19:07;2.28;;;0.77;;
50231;SDS011;36118;56.468;84.952;2023-04-24T21:24:10;2.15;;;1.00;;
50231;SDS011;36118;56.468;84.952;2023-04-24T21:29:13;1.08;;;0.50;;
50231;SDS011;36118;56.468;84.952;2023-04-24T21:34:15;2.00;;;0.73;;
50231;SDS011;36118;56.468;84.952;2023-04-24T21:39:18;1.15;;;0.60;;
50231;SDS011;36118;56.468;84.952;2023-04-24T21:44:22;2.17;;;0.60;;
50231;SDS011;36118;56.468;84.952;2023-04-24T21:49:24;1.50;;;0.50;;
50231;SDS011;36118;56.468;84.952;2023-04-24T21:54:27;1.33;;;0.50;;
50231;SDS011;36118;56.468;84.952;2023-04-24T21:59:30;1.73;;;0.45;;
50231;SDS011;36118;56.468;84.952;2023-04-24T22:04:33;1.95;;;0.60;;
50231;SDS011;36118;56.468;84.952;2023-04-24T22:09:36;1.38;;;0.50;;
50231;SDS011;36118;56.468;84.952;2023-04-24T22:14:39;1.33;;;0.50;;
50231;SDS011;36118;56.468;84.952;2023-04-24T22:19:42;1.95;;;0.70;;
50231;SDS011;36118;56.468;84.952;2023-04-24T22:24:45;1.35;;;0.50;;
50231;SDS011;36118;56.468;84.952;2023-04-24T22:29:48;3.25;;;0.50;;
50231;SDS011;36118;56.468;84.952;2023-04-24T22:34:51;1.55;;;0.38;;
50231;SDS011;36118;56.468;84.952;2023-04-24T22:39:54;1.80;;;0.50;;
50231;SDS011;36118;56.468;84.952;2023-04-24T22:44:57;0.65;;;0.30;;
50231;SDS011;36118;56.468;84.952;2023-04-24T22:50:00;1.58;;;0.60;;
50231;SDS011;36118;56.468;84.952;2023-04-24T22:55:04;1.60;;;0.50;;
50231;SDS011;36118;56.468;84.952;2023-04-24T23:00:10;2.08;;;0.63;;
50231;SDS011;36118;56.468;84.952;2023-04-24T23:05:14;1.42;;;0.50;;
50231;SDS011;36118;56.468;84.952;2023-04-24T23:10:17;1.20;;;0.43;;
50231;SDS011;36118;56.468;84.952;2023-04-24T23:15:20;1.90;;;0.65;;
50231;SDS011;36118;56.468;84.952;2023-04-24T23:20:23;1.83;;;0.80;;
50231;SDS011;36118;56.468;84.952;2023-04-24T23:25:25;1.90;;;0.70;;
50231;SDS011;36118;56.468;84.952;2023-04-24T23:30:28;1.67;;;0.63;;
50231;SDS011;36118;56.468;84.952;2023-04-24T23:35:31;2.67;;;0.80;;
50231;SDS011;36118;56.468;84.952;2023-04-24T23:40:34;2.90;;;0.88;;
50231;SDS011;36118;56.468;84.952;2023-04-24T23:45:37;1.70;;;0.75;;
50231;SDS011;36118;56.468;84.952;2023-04-24T23:50:41;2.35;;;0.75;;
50231;SDS011;36118;56.468;84.952;2023-04-24T23:55:44;2.67;;;1.05;;
